sensor_id;sensor_type;location;lat;lon;timestamp;temperature;humidity
4090;DHT22;2059;48.538;12.146;2024-01-30T00:04:51;1.40;99.90
4090;DHT22;2059;48.538;12.146;2024-01-30T00:09:54;1.30;99.90
4090;DHT22;2059;48.538;12.146;2024-01-30T00:14:55;1.20;99.90
4090;DHT22;2059;48.538;12.146;2024-01-30T00:19:57;1.20;99.90
4090;DHT22;2059;48.538;12.146;2024-01-30T00:25:00;1.30;99.90
4090;DHT22;2059;48.538;12.146;2024-01-30T00:30:03;1.50;99.90
4090;DHT22;2059;48.538;12.146;2024-01-30T00:35:05;1.50;99.90
4090;DHT22;2059;48.538;12.146;2024-01-30T00:40:10;1.40;99.90
4090;DHT22;2059;48.538;12.146;2024-01-30T00:45:16;1.50;99.90
4090;DHT22;2059;48.538;12.146;2024-01-30T00:50:18;1.50;99.90
4090;DHT22;2059;48.538;12.146;2024-01-30T00:55:21;1.30;99.90
4090;DHT22;2059;48.538;12.146;2024-01-30T01:00:23;1.30;99.90
4090;DHT22;2059;48.538;12.146;2024-01-30T01:05:29;1.40;99.90
4090;DHT22;2059;48.538;12.146;2024-01-30T01:10:32;1.60;99.90
4090;DHT22;2059;48.538;12.146;2024-01-30T01:15:34;1.50;99.90
4090;DHT22;2059;48.538;12.146;2024-01-30T01:20:36;1.30;99.90
4090;DHT22;2059;48.538;12.146;2024-01-30T01:25:39;1.30;99.90
4090;DHT22;2059;48.538;12.146;2024-01-30T01:30:41;1.20;99.90
4090;DHT22;2059;48.538;12.146;2024-01-30T01:35:43;0.80;99.90
4090;DHT22;2059;48.538;12.146;2024-01-30T01:40:46;0.70;99.90
4090;DHT22;2059;48.538;12.146;2024-01-30T01:45:47;0.60;99.90
4090;DHT22;2059;48.538;12.146;2024-01-30T01:50:49;0.60;99.90
4090;DHT22;2059;48.538;12.146;2024-01-30T01:55:53;0.60;99.90
4090;DHT22;2059;48.538;12.146;2024-01-30T02:00:56;0.70;99.90
4090;DHT22;2059;48.538;12.146;2024-01-30T02:05:58;0.40;99.90
4090;DHT22;2059;48.538;12.146;2024-01-30T02:11:02;0.30;99.90
4090;DHT22;2059;48.538;12.146;2024-01-30T02:16:04;0.20;99.90
4090;DHT22;2059;48.538;12.146;2024-01-30T02:21:07;0.30;99.90
4090;DHT22;2059;48.538;12.146;2024-01-30T02:26:09;0.30;99.90
4090;DHT22;2059;48.538;12.146;2024-01-30T02:31:11;0.20;99.90
4090;DHT22;2059;48.538;12.146;2024-01-30T02:36:14;0.20;99.90
4090;DHT22;2059;48.538;12.146;2024-01-30T02:41:17;0.20;99.90
4090;DHT22;2059;48.538;12.146;2024-01-30T02:46:18;0.20;99.90
4090;DHT22;2059;48.538;12.146;2024-01-30T02:51:21;0.20;99.90
4090;DHT22;2059;48.538;12.146;2024-01-30T02:56:23;0.30;99.90
4090;DHT22;2059;48.538;12.146;2024-01-30T03:01:25;0.30;99.90
4090;DHT22;2059;48.538;12.146;2024-01-30T03:06:28;0.10;99.90
4090;DHT22;2059;48.538;12.146;2024-01-30T03:11:30;0.20;99.90
4090;DHT22;2059;48.538;12.146;2024-01-30T03:16:31;0.30;99.90
4090;DHT22;2059;48.538;12.146;2024-01-30T03:21:35;0.10;99.90
4090;DHT22;2059;48.538;12.146;2024-01-30T03:26:36;0.00;99.90
4090;DHT22;2059;48.538;12.146;2024-01-30T03:31:38;0.30;99.90
4090;DHT22;2059;48.538;12.146;2024-01-30T03:36:41;0.20;99.90
4090;DHT22;2059;48.538;12.146;2024-01-30T03:41:43;-0.10;99.90
4090;DHT22;2059;48.538;12.146;2024-01-30T03:46:46;0.00;99.90
4090;DHT22;2059;48.538;12.146;2024-01-30T03:51:49;0.00;99.90
4090;DHT22;2059;48.538;12.146;2024-01-30T03:56:51;0.30;99.90
4090;DHT22;2059;48.538;12.146;2024-01-30T04:01:52;0.00;99.90
4090;DHT22;2059;48.538;12.146;2024-01-30T04:06:55;-0.20;99.90
4090;DHT22;2059;48.538;12.146;2024-01-30T04:11:57;-0.30;99.90
4090;DHT22;2059;48.538;12.146;2024-01-30T04:16:59;-0.20;99.90
4090;DHT22;2059;48.538;12.146;2024-01-30T04:22:02;-0.10;99.90
4090;DHT22;2059;48.538;12.146;2024-01-30T04:27:04;0.00;99.90
4090;DHT22;2059;48.538;12.146;2024-01-30T04:32:06;0.20;99.90
4090;DHT22;2059;48.538;12.146;2024-01-30T04:37:10;0.40;99.90
4090;DHT22;2059;48.538;12.146;2024-01-30T04:42:12;0.50;99.90
4090;DHT22;2059;48.538;12.146;2024-01-30T04:47:13;0.50;99.90
4090;DHT22;2059;48.538;12.146;2024-01-30T04:52:17;0.50;99.90
4090;DHT22;2059;48.538;12.146;2024-01-30T04:57:18;0.50;99.90
4090;DHT22;2059;48.538;12.146;2024-01-30T05:02:20;0.40;99.90
4090;DHT22;2059;48.538;12.146;2024-01-30T05:07:24;0.30;99.90
4090;DHT22;2059;48.538;12.146;2024-01-30T05:12:26;0.20;99.90
4090;DHT22;2059;48.538;12.146;2024-01-30T05:17:28;0.30;99.90
4090;DHT22;2059;48.538;12.146;2024-01-30T05:22:31;0.30;99.90
4090;DHT22;2059;48.538;12.146;2024-01-30T05:27:32;0.10;99.90
4090;DHT22;2059;48.538;12.146;2024-01-30T05:32:34;0.10;99.90
4090;DHT22;2059;48.538;12.146;2024-01-30T05:37:37;0.00;99.90
4090;DHT22;2059;48.538;12.146;2024-01-30T05:42:39;-0.10;99.90
4090;DHT22;2059;48.538;12.146;2024-01-30T05:47:41;0.20;99.90
4090;DHT22;2059;48.538;12.146;2024-01-30T05:52:44;0.30;99.90
4090;DHT22;2059;48.538;12.146;2024-01-30T05:57:46;0.30;99.90
4090;DHT22;2059;48.538;12.146;2024-01-30T06:02:48;0.20;99.90
4090;DHT22;2059;48.538;12.146;2024-01-30T06:07:51;0.30;99.90
4090;DHT22;2059;48.538;12.146;2024-01-30T06:12:52;-0.10;99.90
4090;DHT22;2059;48.538;12.146;2024-01-30T06:17:54;-0.20;99.90
4090;DHT22;2059;48.538;12.146;2024-01-30T06:22:57;-0.20;99.90
4090;DHT22;2059;48.538;12.146;2024-01-30T06:27:59;-0.10;99.90
4090;DHT22;2059;48.538;12.146;2024-01-30T06:33:00;-0.30;99.90
4090;DHT22;2059;48.538;12.146;2024-01-30T06:38:04;-0.40;99.90
4090;DHT22;2059;48.538;12.146;2024-01-30T06:43:05;-0.20;99.90
4090;DHT22;2059;48.538;12.146;2024-01-30T06:48:08;-0.10;99.90
4090;DHT22;2059;48.538;12.146;2024-01-30T06:53:11;0.00;99.90
4090;DHT22;2059;48.538;12.146;2024-01-30T06:58:13;-0.40;99.90
4090;DHT22;2059;48.538;12.146;2024-01-30T07:03:14;-0.30;99.90
4090;DHT22;2059;48.538;12.146;2024-01-30T07:08:30;-0.20;99.90
4090;DHT22;2059;48.538;12.146;2024-01-30T07:13:32;-0.10;99.90
4090;DHT22;2059;48.538;12.146;2024-01-30T07:18:34;-0.10;99.90
4090;DHT22;2059;48.538;12.146;2024-01-30T07:23:40;-0.20;99.90
4090;DHT22;2059;48.538;12.146;2024-01-30T07:28:43;-0.10;99.90
4090;DHT22;2059;48.538;12.146;2024-01-30T07:33:58;0.00;99.90
4090;DHT22;2059;48.538;12.146;2024-01-30T07:39:03;-0.20;99.90
4090;DHT22;2059;48.538;12.146;2024-01-30T07:44:04;-0.20;99.90
4090;DHT22;2059;48.538;12.146;2024-01-30T07:49:06;0.00;99.90
4090;DHT22;2059;48.538;12.146;2024-01-30T07:54:10;0.20;99.90
4090;DHT22;2059;48.538;12.146;2024-01-30T07:59:11;0.60;99.90
4090;DHT22;2059;48.538;12.146;2024-01-30T08:04:14;1.00;99.90
4090;DHT22;2059;48.538;12.146;2024-01-30T08:09:17;0.80;99.90
4090;DHT22;2059;48.538;12.146;2024-01-30T08:14:19;1.10;99.90
4090;DHT22;2059;48.538;12.146;2024-01-30T08:19:20;1.60;99.90
4090;DHT22;2059;48.538;12.146;2024-01-30T08:24:24;1.90;99.90
4090;DHT22;2059;48.538;12.146;2024-01-30T08:29:26;2.20;99.90
4090;DHT22;2059;48.538;12.146;2024-01-30T08:34:27;2.20;99.90
4090;DHT22;2059;48.538;12.146;2024-01-30T08:39:32;2.60;99.90
4090;DHT22;2059;48.538;12.146;2024-01-30T08:44:34;2.80;99.90
4090;DHT22;2059;48.538;12.146;2024-01-30T08:55:36;3.10;99.90
4090;DHT22;2059;48.538;12.146;2024-01-30T09:00:38;3.70;99.90
4090;DHT22;2059;48.538;12.146;2024-01-30T09:05:39;3.70;99.90
4090;DHT22;2059;48.538;12.146;2024-01-30T09:10:43;4.10;99.90
4090;DHT22;2059;48.538;12.146;2024-01-30T09:15:45;4.20;99.90
4090;DHT22;2059;48.538;12.146;2024-01-30T09:20:47;4.30;99.90
4090;DHT22;2059;48.538;12.146;2024-01-30T09:25:50;4.80;99.90
4090;DHT22;2059;48.538;12.146;2024-01-30T09:30:52;5.00;99.90
4090;DHT22;2059;48.538;12.146;2024-01-30T09:35:54;5.20;99.90
4090;DHT22;2059;48.538;12.146;2024-01-30T09:41:02;6.20;99.20
4090;DHT22;2059;48.538;12.146;2024-01-30T09:46:05;6.70;98.10
4090;DHT22;2059;48.538;12.146;2024-01-30T09:51:09;6.80;97.70
4090;DHT22;2059;48.538;12.146;2024-01-30T09:56:14;6.80;97.40
4090;DHT22;2059;48.538;12.146;2024-01-30T10:01:17;6.60;97.60
4090;DHT22;2059;48.538;12.146;2024-01-30T10:06:20;7.20;96.80
4090;DHT22;2059;48.538;12.146;2024-01-30T10:11:24;6.90;97.20
4090;DHT22;2059;48.538;12.146;2024-01-30T10:16:26;7.20;97.30
4090;DHT22;2059;48.538;12.146;2024-01-30T10:21:28;7.40;96.70
4090;DHT22;2059;48.538;12.146;2024-01-30T10:26:32;7.30;97.30
4090;DHT22;2059;48.538;12.146;2024-01-30T10:31:37;8.00;95.90
4090;DHT22;2059;48.538;12.146;2024-01-30T10:36:40;7.70;95.80
4090;DHT22;2059;48.538;12.146;2024-01-30T10:41:44;7.40;96.60
4090;DHT22;2059;48.538;12.146;2024-01-30T10:46:50;7.70;96.50
4090;DHT22;2059;48.538;12.146;2024-01-30T10:51:52;8.30;95.90
4090;DHT22;2059;48.538;12.146;2024-01-30T10:56:57;8.50;96.00
4090;DHT22;2059;48.538;12.146;2024-01-30T11:02:00;9.50;95.20
4090;DHT22;2059;48.538;12.146;2024-01-30T11:07:14;9.90;94.30
4090;DHT22;2059;48.538;12.146;2024-01-30T11:12:21;9.80;93.80
4090;DHT22;2059;48.538;12.146;2024-01-30T11:17:27;9.90;93.90
4090;DHT22;2059;48.538;12.146;2024-01-30T11:22:30;9.60;93.80
4090;DHT22;2059;48.538;12.146;2024-01-30T11:27:33;10.00;93.50
4090;DHT22;2059;48.538;12.146;2024-01-30T11:32:35;9.90;93.50
4090;DHT22;2059;48.538;12.146;2024-01-30T11:37:37;10.40;92.90
4090;DHT22;2059;48.538;12.146;2024-01-30T11:42:42;10.30;92.60
4090;DHT22;2059;48.538;12.146;2024-01-30T11:47:45;10.30;92.30
4090;DHT22;2059;48.538;12.146;2024-01-30T11:52:47;10.40;92.10
4090;DHT22;2059;48.538;12.146;2024-01-30T11:57:50;10.50;92.30
4090;DHT22;2059;48.538;12.146;2024-01-30T12:02:53;10.40;91.90
4090;DHT22;2059;48.538;12.146;2024-01-30T12:07:57;10.30;92.60
4090;DHT22;2059;48.538;12.146;2024-01-30T12:13:01;10.50;92.20
4090;DHT22;2059;48.538;12.146;2024-01-30T12:18:07;10.50;92.30
4090;DHT22;2059;48.538;12.146;2024-01-30T12:23:08;10.40;92.40
4090;DHT22;2059;48.538;12.146;2024-01-30T12:28:12;10.40;92.70
4090;DHT22;2059;48.538;12.146;2024-01-30T12:33:16;10.50;92.70
4090;DHT22;2059;48.538;12.146;2024-01-30T12:38:18;10.50;92.40
4090;DHT22;2059;48.538;12.146;2024-01-30T12:43:21;10.80;92.30
4090;DHT22;2059;48.538;12.146;2024-01-30T12:48:23;10.80;92.40
4090;DHT22;2059;48.538;12.146;2024-01-30T12:53:25;11.10;92.40
4090;DHT22;2059;48.538;12.146;2024-01-30T12:58:28;11.30;91.70
4090;DHT22;2059;48.538;12.146;2024-01-30T13:03:30;11.50;91.90
4090;DHT22;2059;48.538;12.146;2024-01-30T13:08:32;11.60;91.50
4090;DHT22;2059;48.538;12.146;2024-01-30T13:13:35;11.50;91.70
4090;DHT22;2059;48.538;12.146;2024-01-30T13:18:37;11.70;91.40
4090;DHT22;2059;48.538;12.146;2024-01-30T13:23:39;11.70;91.50
4090;DHT22;2059;48.538;12.146;2024-01-30T13:28:42;11.80;91.50
4090;DHT22;2059;48.538;12.146;2024-01-30T13:33:44;11.80;91.60
4090;DHT22;2059;48.538;12.146;2024-01-30T13:38:46;11.60;91.70
4090;DHT22;2059;48.538;12.146;2024-01-30T13:43:50;11.30;92.00
4090;DHT22;2059;48.538;12.146;2024-01-30T13:48:52;11.20;92.20
4090;DHT22;2059;48.538;12.146;2024-01-30T13:53:54;10.70;93.00
4090;DHT22;2059;48.538;12.146;2024-01-30T13:58:57;10.60;93.10
4090;DHT22;2059;48.538;12.146;2024-01-30T14:03:59;10.40;93.40
4090;DHT22;2059;48.538;12.146;2024-01-30T14:09:01;10.40;93.70
4090;DHT22;2059;48.538;12.146;2024-01-30T14:14:05;10.40;93.90
4090;DHT22;2059;48.538;12.146;2024-01-30T14:19:07;10.30;94.00
4090;DHT22;2059;48.538;12.146;2024-01-30T14:24:09;10.30;94.10
4090;DHT22;2059;48.538;12.146;2024-01-30T14:29:12;10.30;94.10
4090;DHT22;2059;48.538;12.146;2024-01-30T14:34:13;10.30;94.10
4090;DHT22;2059;48.538;12.146;2024-01-30T14:39:15;10.40;94.20
4090;DHT22;2059;48.538;12.146;2024-01-30T14:44:18;10.50;94.00
4090;DHT22;2059;48.538;12.146;2024-01-30T14:49:20;10.20;94.40
4090;DHT22;2059;48.538;12.146;2024-01-30T14:54:22;10.10;94.40
4090;DHT22;2059;48.538;12.146;2024-01-30T14:59:25;10.10;94.30
4090;DHT22;2059;48.538;12.146;2024-01-30T15:04:27;9.80;94.80
4090;DHT22;2059;48.538;12.146;2024-01-30T15:09:29;9.70;95.30
4090;DHT22;2059;48.538;12.146;2024-01-30T15:14:32;9.50;95.60
4090;DHT22;2059;48.538;12.146;2024-01-30T15:19:34;9.20;96.00
4090;DHT22;2059;48.538;12.146;2024-01-30T15:24:35;9.10;96.20
4090;DHT22;2059;48.538;12.146;2024-01-30T15:29:38;9.00;96.40
4090;DHT22;2059;48.538;12.146;2024-01-30T15:34:40;8.80;96.60
4090;DHT22;2059;48.538;12.146;2024-01-30T15:39:42;8.90;96.60
4090;DHT22;2059;48.538;12.146;2024-01-30T15:44:45;8.70;96.80
4090;DHT22;2059;48.538;12.146;2024-01-30T15:49:47;8.60;97.20
4090;DHT22;2059;48.538;12.146;2024-01-30T15:54:49;8.50;97.10
4090;DHT22;2059;48.538;12.146;2024-01-30T15:59:52;8.30;97.30
4090;DHT22;2059;48.538;12.146;2024-01-30T16:04:54;8.10;97.60
4090;DHT22;2059;48.538;12.146;2024-01-30T16:09:55;8.00;97.70
4090;DHT22;2059;48.538;12.146;2024-01-30T16:14:58;7.90;98.00
4090;DHT22;2059;48.538;12.146;2024-01-30T16:20:00;7.80;98.20
4090;DHT22;2059;48.538;12.146;2024-01-30T16:25:02;7.70;98.40
4090;DHT22;2059;48.538;12.146;2024-01-30T16:30:07;7.50;98.60
4090;DHT22;2059;48.538;12.146;2024-01-30T16:35:09;7.40;99.00
4090;DHT22;2059;48.538;12.146;2024-01-30T16:40:11;7.30;99.40
4090;DHT22;2059;48.538;12.146;2024-01-30T16:45:14;7.20;99.80
4090;DHT22;2059;48.538;12.146;2024-01-30T16:50:16;7.10;99.90
4090;DHT22;2059;48.538;12.146;2024-01-30T16:55:18;7.00;99.90
4090;DHT22;2059;48.538;12.146;2024-01-30T17:00:23;6.90;99.90
4090;DHT22;2059;48.538;12.146;2024-01-30T17:05:25;6.70;99.90
4090;DHT22;2059;48.538;12.146;2024-01-30T17:10:27;6.60;99.90
4090;DHT22;2059;48.538;12.146;2024-01-30T17:15:30;6.50;99.90
4090;DHT22;2059;48.538;12.146;2024-01-30T17:20:32;6.50;99.90
4090;DHT22;2059;48.538;12.146;2024-01-30T17:25:34;6.50;99.90
4090;DHT22;2059;48.538;12.146;2024-01-30T17:30:37;6.40;99.90
4090;DHT22;2059;48.538;12.146;2024-01-30T17:35:39;6.40;99.90
4090;DHT22;2059;48.538;12.146;2024-01-30T17:40:41;6.30;99.90
4090;DHT22;2059;48.538;12.146;2024-01-30T17:45:44;6.30;99.90
4090;DHT22;2059;48.538;12.146;2024-01-30T17:50:46;6.10;99.90
4090;DHT22;2059;48.538;12.146;2024-01-30T17:55:48;6.10;99.90
4090;DHT22;2059;48.538;12.146;2024-01-30T18:00:51;5.70;99.90
4090;DHT22;2059;48.538;12.146;2024-01-30T18:05:53;5.70;99.90
4090;DHT22;2059;48.538;12.146;2024-01-30T18:10:55;5.90;99.90
4090;DHT22;2059;48.538;12.146;2024-01-30T18:15:58;5.80;99.90
4090;DHT22;2059;48.538;12.146;2024-01-30T18:21:00;5.70;99.90
4090;DHT22;2059;48.538;12.146;2024-01-30T18:26:02;5.70;99.90
4090;DHT22;2059;48.538;12.146;2024-01-30T18:31:06;5.70;99.90
4090;DHT22;2059;48.538;12.146;2024-01-30T18:36:08;5.60;99.90
4090;DHT22;2059;48.538;12.146;2024-01-30T18:41:10;5.50;99.90
4090;DHT22;2059;48.538;12.146;2024-01-30T18:46:13;5.40;99.90
4090;DHT22;2059;48.538;12.146;2024-01-30T18:51:21;5.40;99.90
4090;DHT22;2059;48.538;12.146;2024-01-30T18:56:23;5.30;99.90
4090;DHT22;2059;48.538;12.146;2024-01-30T19:01:26;5.00;99.90
4090;DHT22;2059;48.538;12.146;2024-01-30T19:06:28;4.90;99.90
4090;DHT22;2059;48.538;12.146;2024-01-30T19:11:30;4.90;99.90
4090;DHT22;2059;48.538;12.146;2024-01-30T19:16:33;5.00;99.90
4090;DHT22;2059;48.538;12.146;2024-01-30T19:21:36;4.90;99.90
4090;DHT22;2059;48.538;12.146;2024-01-30T19:26:37;4.70;99.90
4090;DHT22;2059;48.538;12.146;2024-01-30T19:31:41;4.70;99.90
4090;DHT22;2059;48.538;12.146;2024-01-30T19:36:42;4.70;99.90
4090;DHT22;2059;48.538;12.146;2024-01-30T19:41:44;4.50;99.90
4090;DHT22;2059;48.538;12.146;2024-01-30T19:46:47;4.20;99.90
4090;DHT22;2059;48.538;12.146;2024-01-30T19:51:49;4.40;99.90
4090;DHT22;2059;48.538;12.146;2024-01-30T19:56:51;4.30;99.90
4090;DHT22;2059;48.538;12.146;2024-01-30T20:01:54;4.30;99.90
4090;DHT22;2059;48.538;12.146;2024-01-30T20:06:56;4.20;99.90
4090;DHT22;2059;48.538;12.146;2024-01-30T20:11:58;3.90;99.90
4090;DHT22;2059;48.538;12.146;2024-01-30T20:17:01;3.90;99.90
4090;DHT22;2059;48.538;12.146;2024-01-30T20:22:03;4.00;99.90
4090;DHT22;2059;48.538;12.146;2024-01-30T20:27:05;3.80;99.90
4090;DHT22;2059;48.538;12.146;2024-01-30T20:32:08;3.90;99.90
4090;DHT22;2059;48.538;12.146;2024-01-30T20:37:10;3.90;99.90
4090;DHT22;2059;48.538;12.146;2024-01-30T20:42:12;3.90;99.90
4090;DHT22;2059;48.538;12.146;2024-01-30T20:47:15;3.60;99.90
4090;DHT22;2059;48.538;12.146;2024-01-30T20:52:17;3.30;99.90
4090;DHT22;2059;48.538;12.146;2024-01-30T20:57:19;3.70;99.90
4090;DHT22;2059;48.538;12.146;2024-01-30T21:02:22;3.70;99.90
4090;DHT22;2059;48.538;12.146;2024-01-30T21:07:23;3.90;99.90
4090;DHT22;2059;48.538;12.146;2024-01-30T21:12:26;3.60;99.90
4090;DHT22;2059;48.538;12.146;2024-01-30T21:17:30;3.90;99.90
4090;DHT22;2059;48.538;12.146;2024-01-30T21:22:32;4.10;99.90
4090;DHT22;2059;48.538;12.146;2024-01-30T21:27:34;3.80;99.90
4090;DHT22;2059;48.538;12.146;2024-01-30T21:32:40;3.60;99.90
4090;DHT22;2059;48.538;12.146;2024-01-30T21:37:42;3.50;99.90
4090;DHT22;2059;48.538;12.146;2024-01-30T21:42:44;3.30;99.90
4090;DHT22;2059;48.538;12.146;2024-01-30T21:47:47;3.20;99.90
4090;DHT22;2059;48.538;12.146;2024-01-30T21:52:49;3.30;99.90
4090;DHT22;2059;48.538;12.146;2024-01-30T21:57:52;3.00;99.90
4090;DHT22;2059;48.538;12.146;2024-01-30T22:02:55;2.80;99.90
4090;DHT22;2059;48.538;12.146;2024-01-30T22:07:57;3.00;99.90
4090;DHT22;2059;48.538;12.146;2024-01-30T22:12:59;3.10;99.90
4090;DHT22;2059;48.538;12.146;2024-01-30T22:18:02;3.30;99.90
4090;DHT22;2059;48.538;12.146;2024-01-30T22:23:04;3.20;99.90
4090;DHT22;2059;48.538;12.146;2024-01-30T22:28:06;2.90;99.90
4090;DHT22;2059;48.538;12.146;2024-01-30T22:33:10;2.80;99.90
4090;DHT22;2059;48.538;12.146;2024-01-30T22:38:12;2.70;99.90
4090;DHT22;2059;48.538;12.146;2024-01-30T22:43:14;2.90;99.90
4090;DHT22;2059;48.538;12.146;2024-01-30T22:48:17;3.10;99.90
4090;DHT22;2059;48.538;12.146;2024-01-30T22:53:27;3.50;99.90
4090;DHT22;2059;48.538;12.146;2024-01-30T22:58:29;3.20;99.90
4090;DHT22;2059;48.538;12.146;2024-01-30T23:03:32;3.10;99.90
4090;DHT22;2059;48.538;12.146;2024-01-30T23:08:34;3.10;99.90
4090;DHT22;2059;48.538;12.146;2024-01-30T23:13:37;3.10;99.90
4090;DHT22;2059;48.538;12.146;2024-01-30T23:18:41;3.10;99.90
4090;DHT22;2059;48.538;12.146;2024-01-30T23:23:42;2.90;99.90
4090;DHT22;2059;48.538;12.146;2024-01-30T23:28:44;3.20;99.90
4090;DHT22;2059;48.538;12.146;2024-01-30T23:33:48;3.10;99.90
4090;DHT22;2059;48.538;12.146;2024-01-30T23:38:50;2.70;99.90
4090;DHT22;2059;48.538;12.146;2024-01-30T23:43:52;2.80;99.90
4090;DHT22;2059;48.538;12.146;2024-01-30T23:48:55;3.10;99.90
4090;DHT22;2059;48.538;12.146;2024-01-30T23:53:57;3.20;99.90
4090;DHT22;2059;48.538;12.146;2024-01-30T23:58:58;3.10;99.90
